sensor_id;sensor_type;location;lat;lon;timestamp;P1;durP1;ratioP1;P2;durP2;ratioP2
11342;SDS011;5726;42.160;24.746;2023-07-31T00:00:04;5.82;;;3.30;;
11342;SDS011;5726;42.160;24.746;2023-07-31T00:02:30;5.70;;;2.90;;
11342;SDS011;5726;42.160;24.746;2023-07-31T00:04:55;3.67;;;2.45;;
11342;SDS011;5726;42.160;24.746;2023-07-31T00:07:21;4.82;;;2.10;;
11342;SDS011;5726;42.160;24.746;2023-07-31T00:09:47;3.95;;;2.25;;
11342;SDS011;5726;42.160;24.746;2023-07-31T00:12:12;5.28;;;2.17;;
11342;SDS011;5726;42.160;24.746;2023-07-31T00:14:38;3.78;;;1.90;;
11342;SDS011;5726;42.160;24.746;2023-07-31T00:17:03;2.88;;;1.45;;
11342;SDS011;5726;42.160;24.746;2023-07-31T00:19:29;2.03;;;1.50;;
11342;SDS011;5726;42.160;24.746;2023-07-31T00:21:54;4.60;;;1.85;;
11342;SDS011;5726;42.160;24.746;2023-07-31T00:24:20;3.00;;;1.60;;
11342;SDS011;5726;42.160;24.746;2023-07-31T00:26:45;3.72;;;1.70;;
11342;SDS011;5726;42.160;24.746;2023-07-31T00:29:10;2.90;;;1.80;;
11342;SDS011;5726;42.160;24.746;2023-07-31T00:31:36;2.70;;;1.38;;
11342;SDS011;5726;42.160;24.746;2023-07-31T00:34:01;4.70;;;1.80;;
11342;SDS011;5726;42.160;24.746;2023-07-31T00:36:27;2.83;;;1.90;;
11342;SDS011;5726;42.160;24.746;2023-07-31T00:38:52;4.70;;;1.70;;
11342;SDS011;5726;42.160;24.746;2023-07-31T00:41:17;2.58;;;1.60;;
11342;SDS011;5726;42.160;24.746;2023-07-31T00:43:43;6.80;;;3.83;;
11342;SDS011;5726;42.160;24.746;2023-07-31T00:46:08;2.53;;;1.38;;
11342;SDS011;5726;42.160;24.746;2023-07-31T00:48:34;2.53;;;1.83;;
11342;SDS011;5726;42.160;24.746;2023-07-31T00:51:01;2.55;;;1.70;;
11342;SDS011;5726;42.160;24.746;2023-07-31T00:53:27;2.70;;;1.80;;
11342;SDS011;5726;42.160;24.746;2023-07-31T00:55:53;3.80;;;1.55;;
11342;SDS011;5726;42.160;24.746;2023-07-31T00:58:19;1.75;;;1.50;;
11342;SDS011;5726;42.160;24.746;2023-07-31T01:00:44;3.38;;;1.50;;
11342;SDS011;5726;42.160;24.746;2023-07-31T01:03:10;2.55;;;1.45;;
11342;SDS011;5726;42.160;24.746;2023-07-31T01:05:43;1.95;;;1.40;;
11342;SDS011;5726;42.160;24.746;2023-07-31T01:08:12;3.45;;;1.98;;
11342;SDS011;5726;42.160;24.746;2023-07-31T01:10:54;3.92;;;1.70;;
11342;SDS011;5726;42.160;24.746;2023-07-31T01:13:32;2.10;;;1.60;;
11342;SDS011;5726;42.160;24.746;2023-07-31T01:15:57;2.90;;;1.60;;
11342;SDS011;5726;42.160;24.746;2023-07-31T01:18:23;1.88;;;1.40;;
11342;SDS011;5726;42.160;24.746;2023-07-31T01:20:52;4.65;;;1.85;;
11342;SDS011;5726;42.160;24.746;2023-07-31T01:23:27;3.53;;;1.60;;
11342;SDS011;5726;42.160;24.746;2023-07-31T01:26:11;1.80;;;1.48;;
11342;SDS011;5726;42.160;24.746;2023-07-31T01:31:18;3.25;;;2.03;;
11342;SDS011;5726;42.160;24.746;2023-07-31T01:33:48;6.85;;;4.50;;
11342;SDS011;5726;42.160;24.746;2023-07-31T01:36:15;4.28;;;3.00;;
11342;SDS011;5726;42.160;24.746;2023-07-31T01:38:41;4.15;;;2.30;;
11342;SDS011;5726;42.160;24.746;2023-07-31T01:41:07;4.03;;;2.60;;
11342;SDS011;5726;42.160;24.746;2023-07-31T01:43:32;4.85;;;2.30;;
11342;SDS011;5726;42.160;24.746;2023-07-31T01:45:58;5.28;;;3.00;;
11342;SDS011;5726;42.160;24.746;2023-07-31T01:48:23;4.13;;;3.17;;
11342;SDS011;5726;42.160;24.746;2023-07-31T01:50:48;36.50;;;28.42;;
11342;SDS011;5726;42.160;24.746;2023-07-31T01:53:14;33.97;;;27.17;;
11342;SDS011;5726;42.160;24.746;2023-07-31T01:55:40;48.63;;;36.17;;
11342;SDS011;5726;42.160;24.746;2023-07-31T01:58:05;18.42;;;14.27;;
11342;SDS011;5726;42.160;24.746;2023-07-31T02:00:31;16.88;;;8.27;;
11342;SDS011;5726;42.160;24.746;2023-07-31T02:02:56;13.70;;;8.07;;
11342;SDS011;5726;42.160;24.746;2023-07-31T02:05:21;15.82;;;10.48;;
11342;SDS011;5726;42.160;24.746;2023-07-31T02:07:47;7.20;;;4.90;;
11342;SDS011;5726;42.160;24.746;2023-07-31T02:10:13;10.25;;;5.28;;
11342;SDS011;5726;42.160;24.746;2023-07-31T02:12:38;9.85;;;6.43;;
11342;SDS011;5726;42.160;24.746;2023-07-31T02:15:04;21.67;;;12.30;;
11342;SDS011;5726;42.160;24.746;2023-07-31T02:17:29;21.20;;;11.93;;
11342;SDS011;5726;42.160;24.746;2023-07-31T02:19:55;42.78;;;31.85;;
11342;SDS011;5726;42.160;24.746;2023-07-31T02:22:20;34.50;;;18.73;;
11342;SDS011;5726;42.160;24.746;2023-07-31T02:24:45;39.03;;;26.08;;
11342;SDS011;5726;42.160;24.746;2023-07-31T02:27:11;17.20;;;10.93;;
11342;SDS011;5726;42.160;24.746;2023-07-31T02:29:36;20.00;;;8.38;;
11342;SDS011;5726;42.160;24.746;2023-07-31T02:32:02;16.48;;;7.18;;
11342;SDS011;5726;42.160;24.746;2023-07-31T02:34:28;9.55;;;6.30;;
11342;SDS011;5726;42.160;24.746;2023-07-31T02:36:53;13.52;;;6.28;;
11342;SDS011;5726;42.160;24.746;2023-07-31T02:39:18;10.68;;;5.10;;
11342;SDS011;5726;42.160;24.746;2023-07-31T02:41:44;6.53;;;4.45;;
11342;SDS011;5726;42.160;24.746;2023-07-31T02:44:10;8.40;;;5.15;;
11342;SDS011;5726;42.160;24.746;2023-07-31T02:46:37;10.85;;;4.78;;
11342;SDS011;5726;42.160;24.746;2023-07-31T02:49:03;6.35;;;4.22;;
11342;SDS011;5726;42.160;24.746;2023-07-31T02:51:28;10.32;;;3.45;;
11342;SDS011;5726;42.160;24.746;2023-07-31T02:53:54;5.82;;;3.80;;
11342;SDS011;5726;42.160;24.746;2023-07-31T02:56:19;8.32;;;4.00;;
11342;SDS011;5726;42.160;24.746;2023-07-31T02:58:44;6.18;;;4.80;;
11342;SDS011;5726;42.160;24.746;2023-07-31T03:01:10;6.28;;;4.13;;
11342;SDS011;5726;42.160;24.746;2023-07-31T03:03:35;13.10;;;7.85;;
11342;SDS011;5726;42.160;24.746;2023-07-31T03:06:01;5.45;;;3.63;;
11342;SDS011;5726;42.160;24.746;2023-07-31T03:08:26;5.75;;;4.20;;
11342;SDS011;5726;42.160;24.746;2023-07-31T03:10:51;6.85;;;4.05;;
11342;SDS011;5726;42.160;24.746;2023-07-31T03:13:17;6.35;;;4.00;;
11342;SDS011;5726;42.160;24.746;2023-07-31T03:15:42;5.80;;;4.20;;
11342;SDS011;5726;42.160;24.746;2023-07-31T03:18:08;6.57;;;4.50;;
11342;SDS011;5726;42.160;24.746;2023-07-31T03:20:34;6.68;;;4.85;;
11342;SDS011;5726;42.160;24.746;2023-07-31T03:22:59;11.20;;;5.43;;
11342;SDS011;5726;42.160;24.746;2023-07-31T03:25:24;9.20;;;5.80;;
11342;SDS011;5726;42.160;24.746;2023-07-31T03:27:50;8.95;;;5.70;;
11342;SDS011;5726;42.160;24.746;2023-07-31T03:30:15;12.25;;;6.45;;
11342;SDS011;5726;42.160;24.746;2023-07-31T03:32:41;10.93;;;5.80;;
11342;SDS011;5726;42.160;24.746;2023-07-31T03:35:06;12.70;;;6.20;;
11342;SDS011;5726;42.160;24.746;2023-07-31T03:37:32;12.38;;;6.40;;
11342;SDS011;5726;42.160;24.746;2023-07-31T03:39:57;8.95;;;5.55;;
11342;SDS011;5726;42.160;24.746;2023-07-31T03:42:23;9.38;;;6.30;;
11342;SDS011;5726;42.160;24.746;2023-07-31T03:44:48;8.02;;;6.18;;
11342;SDS011;5726;42.160;24.746;2023-07-31T03:47:14;8.80;;;6.20;;
11342;SDS011;5726;42.160;24.746;2023-07-31T03:49:39;7.25;;;5.28;;
11342;SDS011;5726;42.160;24.746;2023-07-31T03:52:05;7.25;;;5.75;;
11342;SDS011;5726;42.160;24.746;2023-07-31T03:54:30;7.90;;;5.90;;
11342;SDS011;5726;42.160;24.746;2023-07-31T03:56:56;11.95;;;6.97;;
11342;SDS011;5726;42.160;24.746;2023-07-31T03:59:22;9.30;;;6.90;;
11342;SDS011;5726;42.160;24.746;2023-07-31T04:01:47;9.73;;;6.97;;
11342;SDS011;5726;42.160;24.746;2023-07-31T04:04:12;11.52;;;7.15;;
11342;SDS011;5726;42.160;24.746;2023-07-31T04:06:38;8.90;;;6.57;;
11342;SDS011;5726;42.160;24.746;2023-07-31T04:09:04;8.88;;;6.43;;
11342;SDS011;5726;42.160;24.746;2023-07-31T04:11:29;8.80;;;6.47;;
11342;SDS011;5726;42.160;24.746;2023-07-31T04:13:54;8.35;;;6.00;;
11342;SDS011;5726;42.160;24.746;2023-07-31T04:16:20;15.23;;;9.55;;
11342;SDS011;5726;42.160;24.746;2023-07-31T04:18:45;10.20;;;6.93;;
11342;SDS011;5726;42.160;24.746;2023-07-31T04:21:11;7.80;;;6.13;;
11342;SDS011;5726;42.160;24.746;2023-07-31T04:23:36;8.85;;;6.78;;
11342;SDS011;5726;42.160;24.746;2023-07-31T04:26:02;9.35;;;6.15;;
11342;SDS011;5726;42.160;24.746;2023-07-31T04:28:27;7.30;;;5.53;;
11342;SDS011;5726;42.160;24.746;2023-07-31T04:30:53;6.53;;;5.70;;
11342;SDS011;5726;42.160;24.746;2023-07-31T04:33:18;8.75;;;5.10;;
11342;SDS011;5726;42.160;24.746;2023-07-31T04:35:51;8.70;;;5.72;;
11342;SDS011;5726;42.160;24.746;2023-07-31T04:38:18;9.20;;;5.35;;
11342;SDS011;5726;42.160;24.746;2023-07-31T04:40:44;8.75;;;5.68;;
11342;SDS011;5726;42.160;24.746;2023-07-31T04:43:10;6.88;;;5.70;;
11342;SDS011;5726;42.160;24.746;2023-07-31T04:45:35;8.60;;;6.20;;
11342;SDS011;5726;42.160;24.746;2023-07-31T04:48:01;13.32;;;7.40;;
11342;SDS011;5726;42.160;24.746;2023-07-31T04:50:26;10.55;;;5.57;;
11342;SDS011;5726;42.160;24.746;2023-07-31T04:52:52;11.52;;;5.85;;
11342;SDS011;5726;42.160;24.746;2023-07-31T04:55:17;7.75;;;5.70;;
11342;SDS011;5726;42.160;24.746;2023-07-31T04:57:42;7.15;;;5.28;;
11342;SDS011;5726;42.160;24.746;2023-07-31T05:00:08;8.43;;;5.50;;
11342;SDS011;5726;42.160;24.746;2023-07-31T05:02:34;7.68;;;4.85;;
11342;SDS011;5726;42.160;24.746;2023-07-31T05:04:59;5.80;;;5.20;;
11342;SDS011;5726;42.160;24.746;2023-07-31T05:07:25;6.20;;;4.78;;
11342;SDS011;5726;42.160;24.746;2023-07-31T05:09:50;9.48;;;5.40;;
11342;SDS011;5726;42.160;24.746;2023-07-31T05:12:15;8.65;;;5.57;;
11342;SDS011;5726;42.160;24.746;2023-07-31T05:14:41;6.22;;;5.05;;
11342;SDS011;5726;42.160;24.746;2023-07-31T05:17:06;6.60;;;5.47;;
11342;SDS011;5726;42.160;24.746;2023-07-31T05:19:32;7.57;;;5.28;;
11342;SDS011;5726;42.160;24.746;2023-07-31T05:21:57;6.30;;;4.97;;
11342;SDS011;5726;42.160;24.746;2023-07-31T05:24:23;9.88;;;5.38;;
11342;SDS011;5726;42.160;24.746;2023-07-31T05:26:48;10.27;;;6.20;;
11342;SDS011;5726;42.160;24.746;2023-07-31T05:29:14;8.43;;;5.20;;
11342;SDS011;5726;42.160;24.746;2023-07-31T05:31:39;8.45;;;5.65;;
11342;SDS011;5726;42.160;24.746;2023-07-31T05:34:05;8.55;;;6.30;;
11342;SDS011;5726;42.160;24.746;2023-07-31T05:36:30;8.75;;;5.60;;
11342;SDS011;5726;42.160;24.746;2023-07-31T05:38:55;8.38;;;5.45;;
11342;SDS011;5726;42.160;24.746;2023-07-31T05:41:21;8.77;;;5.22;;
11342;SDS011;5726;42.160;24.746;2023-07-31T05:43:46;12.18;;;5.80;;
11342;SDS011;5726;42.160;24.746;2023-07-31T05:46:12;11.02;;;6.38;;
11342;SDS011;5726;42.160;24.746;2023-07-31T05:48:37;10.75;;;5.97;;
11342;SDS011;5726;42.160;24.746;2023-07-31T05:51:03;12.93;;;7.22;;
11342;SDS011;5726;42.160;24.746;2023-07-31T05:53:28;11.88;;;6.82;;
11342;SDS011;5726;42.160;24.746;2023-07-31T05:55:54;12.82;;;7.40;;
11342;SDS011;5726;42.160;24.746;2023-07-31T05:58:19;13.75;;;7.30;;
11342;SDS011;5726;42.160;24.746;2023-07-31T06:00:44;13.38;;;7.65;;
11342;SDS011;5726;42.160;24.746;2023-07-31T06:03:10;12.15;;;8.00;;
11342;SDS011;5726;42.160;24.746;2023-07-31T06:05:35;15.43;;;9.55;;
11342;SDS011;5726;42.160;24.746;2023-07-31T06:08:01;14.98;;;8.32;;
11342;SDS011;5726;42.160;24.746;2023-07-31T06:10:26;11.63;;;9.30;;
11342;SDS011;5726;42.160;24.746;2023-07-31T06:12:52;11.60;;;7.97;;
11342;SDS011;5726;42.160;24.746;2023-07-31T06:15:17;15.43;;;9.30;;
11342;SDS011;5726;42.160;24.746;2023-07-31T06:17:44;11.05;;;8.15;;
11342;SDS011;5726;42.160;24.746;2023-07-31T06:20:10;10.65;;;8.07;;
11342;SDS011;5726;42.160;24.746;2023-07-31T06:22:35;12.15;;;7.57;;
11342;SDS011;5726;42.160;24.746;2023-07-31T06:25:01;14.02;;;10.23;;
11342;SDS011;5726;42.160;24.746;2023-07-31T06:27:26;10.40;;;7.22;;
11342;SDS011;5726;42.160;24.746;2023-07-31T06:29:52;9.65;;;7.47;;
11342;SDS011;5726;42.160;24.746;2023-07-31T06:32:17;9.82;;;8.10;;
11342;SDS011;5726;42.160;24.746;2023-07-31T06:34:43;11.10;;;7.78;;
11342;SDS011;5726;42.160;24.746;2023-07-31T06:37:08;10.32;;;7.95;;
11342;SDS011;5726;42.160;24.746;2023-07-31T06:39:34;15.70;;;10.65;;
11342;SDS011;5726;42.160;24.746;2023-07-31T06:41:59;11.20;;;8.10;;
11342;SDS011;5726;42.160;24.746;2023-07-31T06:44:25;10.68;;;9.00;;
11342;SDS011;5726;42.160;24.746;2023-07-31T06:46:51;12.02;;;9.02;;
11342;SDS011;5726;42.160;24.746;2023-07-31T06:49:16;11.60;;;8.98;;
11342;SDS011;5726;42.160;24.746;2023-07-31T06:51:41;10.25;;;9.13;;
11342;SDS011;5726;42.160;24.746;2023-07-31T06:54:07;10.80;;;9.32;;
11342;SDS011;5726;42.160;24.746;2023-07-31T06:56:33;10.45;;;8.45;;
11342;SDS011;5726;42.160;24.746;2023-07-31T06:58:59;11.38;;;8.48;;
11342;SDS011;5726;42.160;24.746;2023-07-31T07:01:24;10.35;;;9.10;;
11342;SDS011;5726;42.160;24.746;2023-07-31T07:03:50;9.50;;;8.15;;
11342;SDS011;5726;42.160;24.746;2023-07-31T07:06:18;11.77;;;8.55;;
11342;SDS011;5726;42.160;24.746;2023-07-31T07:08:43;10.23;;;8.68;;
11342;SDS011;5726;42.160;24.746;2023-07-31T07:11:09;10.40;;;8.80;;
11342;SDS011;5726;42.160;24.746;2023-07-31T07:13:34;13.43;;;9.30;;
11342;SDS011;5726;42.160;24.746;2023-07-31T07:16:00;11.20;;;9.25;;
11342;SDS011;5726;42.160;24.746;2023-07-31T07:18:25;15.68;;;9.82;;
11342;SDS011;5726;42.160;24.746;2023-07-31T07:20:51;11.52;;;10.32;;
11342;SDS011;5726;42.160;24.746;2023-07-31T07:23:18;10.73;;;9.32;;
11342;SDS011;5726;42.160;24.746;2023-07-31T07:25:45;11.73;;;10.07;;
11342;SDS011;5726;42.160;24.746;2023-07-31T07:28:10;15.45;;;10.30;;
11342;SDS011;5726;42.160;24.746;2023-07-31T07:30:36;12.63;;;10.63;;
11342;SDS011;5726;42.160;24.746;2023-07-31T07:33:02;10.38;;;9.23;;
11342;SDS011;5726;42.160;24.746;2023-07-31T07:35:27;10.85;;;8.77;;
11342;SDS011;5726;42.160;24.746;2023-07-31T07:37:53;14.00;;;9.52;;
11342;SDS011;5726;42.160;24.746;2023-07-31T07:40:19;12.18;;;10.20;;
11342;SDS011;5726;42.160;24.746;2023-07-31T07:42:44;11.50;;;8.95;;
11342;SDS011;5726;42.160;24.746;2023-07-31T07:45:10;11.10;;;8.63;;
11342;SDS011;5726;42.160;24.746;2023-07-31T07:47:35;11.50;;;9.68;;
11342;SDS011;5726;42.160;24.746;2023-07-31T07:50:01;9.93;;;8.75;;
11342;SDS011;5726;42.160;24.746;2023-07-31T07:52:26;11.45;;;10.25;;
11342;SDS011;5726;42.160;24.746;2023-07-31T07:54:52;9.82;;;8.70;;
11342;SDS011;5726;42.160;24.746;2023-07-31T07:57:18;10.57;;;8.98;;
11342;SDS011;5726;42.160;24.746;2023-07-31T07:59:43;8.60;;;7.80;;
11342;SDS011;5726;42.160;24.746;2023-07-31T08:02:09;10.07;;;8.48;;
11342;SDS011;5726;42.160;24.746;2023-07-31T08:04:34;11.52;;;9.05;;
11342;SDS011;5726;42.160;24.746;2023-07-31T08:06:59;10.38;;;8.45;;
11342;SDS011;5726;42.160;24.746;2023-07-31T08:09:25;9.88;;;7.95;;
11342;SDS011;5726;42.160;24.746;2023-07-31T08:11:50;9.88;;;8.57;;
11342;SDS011;5726;42.160;24.746;2023-07-31T08:14:15;9.75;;;8.65;;
11342;SDS011;5726;42.160;24.746;2023-07-31T08:16:41;8.75;;;7.93;;
11342;SDS011;5726;42.160;24.746;2023-07-31T08:19:06;11.68;;;8.23;;
11342;SDS011;5726;42.160;24.746;2023-07-31T08:21:32;11.73;;;7.80;;
11342;SDS011;5726;42.160;24.746;2023-07-31T08:23:57;10.77;;;7.50;;
11342;SDS011;5726;42.160;24.746;2023-07-31T08:26:23;7.82;;;7.00;;
11342;SDS011;5726;42.160;24.746;2023-07-31T08:31:32;8.68;;;7.78;;
11342;SDS011;5726;42.160;24.746;2023-07-31T08:33:57;8.40;;;7.50;;
11342;SDS011;5726;42.160;24.746;2023-07-31T08:36:23;10.45;;;9.45;;
11342;SDS011;5726;42.160;24.746;2023-07-31T08:38:48;11.48;;;9.85;;
11342;SDS011;5726;42.160;24.746;2023-07-31T08:41:15;10.68;;;9.57;;
11342;SDS011;5726;42.160;24.746;2023-07-31T08:43:43;10.38;;;9.38;;
11342;SDS011;5726;42.160;24.746;2023-07-31T08:46:10;13.30;;;10.15;;
11342;SDS011;5726;42.160;24.746;2023-07-31T08:48:35;11.38;;;9.60;;
11342;SDS011;5726;42.160;24.746;2023-07-31T08:51:03;12.32;;;9.88;;
11342;SDS011;5726;42.160;24.746;2023-07-31T08:53:29;11.27;;;9.75;;
11342;SDS011;5726;42.160;24.746;2023-07-31T08:55:55;10.73;;;9.63;;
11342;SDS011;5726;42.160;24.746;2023-07-31T08:58:23;10.60;;;9.50;;
11342;SDS011;5726;42.160;24.746;2023-07-31T09:00:49;12.13;;;9.85;;
11342;SDS011;5726;42.160;24.746;2023-07-31T09:03:17;10.55;;;9.43;;
11342;SDS011;5726;42.160;24.746;2023-07-31T09:05:44;10.38;;;9.30;;
11342;SDS011;5726;42.160;24.746;2023-07-31T09:08:11;12.30;;;9.50;;
11342;SDS011;5726;42.160;24.746;2023-07-31T09:10:42;11.05;;;9.32;;
11342;SDS011;5726;42.160;24.746;2023-07-31T09:13:08;10.20;;;9.15;;
11342;SDS011;5726;42.160;24.746;2023-07-31T09:15:35;10.23;;;9.13;;
11342;SDS011;5726;42.160;24.746;2023-07-31T09:18:02;10.80;;;9.07;;
11342;SDS011;5726;42.160;24.746;2023-07-31T09:20:29;10.98;;;8.63;;
11342;SDS011;5726;42.160;24.746;2023-07-31T09:22:56;9.68;;;8.68;;
11342;SDS011;5726;42.160;24.746;2023-07-31T09:25:29;10.73;;;9.60;;
11342;SDS011;5726;42.160;24.746;2023-07-31T09:30:27;11.57;;;9.70;;
11342;SDS011;5726;42.160;24.746;2023-07-31T09:33:05;10.63;;;9.60;;
11342;SDS011;5726;42.160;24.746;2023-07-31T09:35:33;11.23;;;10.10;;
11342;SDS011;5726;42.160;24.746;2023-07-31T09:38:00;11.15;;;10.07;;
11342;SDS011;5726;42.160;24.746;2023-07-31T09:40:35;11.52;;;9.25;;
11342;SDS011;5726;42.160;24.746;2023-07-31T09:43:03;11.30;;;9.52;;
11342;SDS011;5726;42.160;24.746;2023-07-31T09:45:30;11.93;;;9.55;;
11342;SDS011;5726;42.160;24.746;2023-07-31T09:47:59;8.95;;;7.95;;
11342;SDS011;5726;42.160;24.746;2023-07-31T09:50:24;10.00;;;8.40;;
11342;SDS011;5726;42.160;24.746;2023-07-31T09:52:50;9.15;;;8.25;;
11342;SDS011;5726;42.160;24.746;2023-07-31T09:55:17;10.20;;;8.80;;
11342;SDS011;5726;42.160;24.746;2023-07-31T09:57:45;9.00;;;8.10;;
11342;SDS011;5726;42.160;24.746;2023-07-31T10:00:12;10.88;;;8.05;;
11342;SDS011;5726;42.160;24.746;2023-07-31T10:02:39;10.18;;;8.80;;
11342;SDS011;5726;42.160;24.746;2023-07-31T10:05:05;11.70;;;9.25;;
11342;SDS011;5726;42.160;24.746;2023-07-31T10:07:34;10.95;;;9.20;;
11342;SDS011;5726;42.160;24.746;2023-07-31T10:10:04;9.95;;;9.00;;
11342;SDS011;5726;42.160;24.746;2023-07-31T10:12:33;9.77;;;8.77;;
11342;SDS011;5726;42.160;24.746;2023-07-31T10:14:59;9.45;;;8.55;;
11342;SDS011;5726;42.160;24.746;2023-07-31T10:17:25;10.15;;;8.90;;
11342;SDS011;5726;42.160;24.746;2023-07-31T10:19:51;9.30;;;8.07;;
11342;SDS011;5726;42.160;24.746;2023-07-31T10:22:19;9.90;;;8.90;;
11342;SDS011;5726;42.160;24.746;2023-07-31T10:24:45;9.75;;;8.73;;
11342;SDS011;5726;42.160;24.746;2023-07-31T10:27:11;10.70;;;8.68;;
11342;SDS011;5726;42.160;24.746;2023-07-31T10:29:41;9.30;;;8.23;;
11342;SDS011;5726;42.160;24.746;2023-07-31T10:32:09;9.43;;;8.52;;
11342;SDS011;5726;42.160;24.746;2023-07-31T10:34:36;8.85;;;8.05;;
11342;SDS011;5726;42.160;24.746;2023-07-31T10:40:00;9.18;;;8.07;;
11342;SDS011;5726;42.160;24.746;2023-07-31T10:45:13;8.75;;;7.82;;
11342;SDS011;5726;42.160;24.746;2023-07-31T10:52:38;9.18;;;8.02;;
11342;SDS011;5726;42.160;24.746;2023-07-31T10:57:51;7.47;;;6.22;;
11342;SDS011;5726;42.160;24.746;2023-07-31T11:00:22;8.30;;;7.32;;
11342;SDS011;5726;42.160;24.746;2023-07-31T11:02:58;10.20;;;7.40;;
11342;SDS011;5726;42.160;24.746;2023-07-31T11:05:46;10.85;;;8.07;;
11342;SDS011;5726;42.160;24.746;2023-07-31T11:08:22;9.75;;;7.72;;
11342;SDS011;5726;42.160;24.746;2023-07-31T11:11:12;10.02;;;9.02;;
11342;SDS011;5726;42.160;24.746;2023-07-31T11:13:40;10.32;;;9.32;;
11342;SDS011;5726;42.160;24.746;2023-07-31T11:16:07;10.75;;;8.25;;
11342;SDS011;5726;42.160;24.746;2023-07-31T11:18:34;8.02;;;6.65;;
11342;SDS011;5726;42.160;24.746;2023-07-31T11:21:00;12.45;;;6.70;;
11342;SDS011;5726;42.160;24.746;2023-07-31T11:23:25;8.50;;;6.30;;
11342;SDS011;5726;42.160;24.746;2023-07-31T11:25:50;9.25;;;6.60;;
11342;SDS011;5726;42.160;24.746;2023-07-31T11:28:16;6.53;;;5.93;;
11342;SDS011;5726;42.160;24.746;2023-07-31T11:30:44;7.93;;;7.05;;
11342;SDS011;5726;42.160;24.746;2023-07-31T11:33:10;7.82;;;6.70;;
11342;SDS011;5726;42.160;24.746;2023-07-31T11:35:47;9.00;;;6.82;;
11342;SDS011;5726;42.160;24.746;2023-07-31T11:38:24;8.40;;;6.05;;
11342;SDS011;5726;42.160;24.746;2023-07-31T11:40:54;10.02;;;6.22;;
11342;SDS011;5726;42.160;24.746;2023-07-31T11:43:21;7.45;;;6.75;;
11342;SDS011;5726;42.160;24.746;2023-07-31T11:45:48;6.65;;;5.70;;
11342;SDS011;5726;42.160;24.746;2023-07-31T11:48:24;8.30;;;6.55;;
11342;SDS011;5726;42.160;24.746;2023-07-31T11:50:54;6.43;;;5.82;;
11342;SDS011;5726;42.160;24.746;2023-07-31T11:56:03;6.57;;;5.80;;
11342;SDS011;5726;42.160;24.746;2023-07-31T11:58:30;9.52;;;7.28;;
11342;SDS011;5726;42.160;24.746;2023-07-31T12:00:57;7.82;;;6.63;;
11342;SDS011;5726;42.160;24.746;2023-07-31T12:03:24;8.25;;;6.78;;
11342;SDS011;5726;42.160;24.746;2023-07-31T12:05:49;7.00;;;6.30;;
11342;SDS011;5726;42.160;24.746;2023-07-31T12:08:15;8.07;;;6.53;;
11342;SDS011;5726;42.160;24.746;2023-07-31T12:10:41;8.13;;;7.18;;
11342;SDS011;5726;42.160;24.746;2023-07-31T12:13:10;8.10;;;7.10;;
11342;SDS011;5726;42.160;24.746;2023-07-31T12:18:08;8.73;;;7.10;;
11342;SDS011;5726;42.160;24.746;2023-07-31T12:20:33;9.07;;;7.60;;
11342;SDS011;5726;42.160;24.746;2023-07-31T12:22:59;7.90;;;7.10;;
11342;SDS011;5726;42.160;24.746;2023-07-31T12:25:28;9.32;;;7.78;;
11342;SDS011;5726;42.160;24.746;2023-07-31T12:27:55;9.15;;;7.38;;
11342;SDS011;5726;42.160;24.746;2023-07-31T12:30:28;6.32;;;5.68;;
11342;SDS011;5726;42.160;24.746;2023-07-31T12:33:34;5.95;;;5.35;;
11342;SDS011;5726;42.160;24.746;2023-07-31T12:36:00;9.63;;;5.30;;
11342;SDS011;5726;42.160;24.746;2023-07-31T12:38:26;6.95;;;4.75;;
11342;SDS011;5726;42.160;24.746;2023-07-31T12:40:52;5.55;;;4.55;;
11342;SDS011;5726;42.160;24.746;2023-07-31T12:43:17;9.65;;;6.95;;
11342;SDS011;5726;42.160;24.746;2023-07-31T12:45:42;5.00;;;4.35;;
11342;SDS011;5726;42.160;24.746;2023-07-31T12:48:08;6.78;;;6.07;;
11342;SDS011;5726;42.160;24.746;2023-07-31T12:50:33;5.00;;;4.50;;
11342;SDS011;5726;42.160;24.746;2023-07-31T12:53:01;5.65;;;5.15;;
11342;SDS011;5726;42.160;24.746;2023-07-31T12:55:28;6.25;;;5.65;;
11342;SDS011;5726;42.160;24.746;2023-07-31T12:57:55;6.13;;;5.53;;
11342;SDS011;5726;42.160;24.746;2023-07-31T13:00:21;5.93;;;5.43;;
11342;SDS011;5726;42.160;24.746;2023-07-31T13:02:47;5.28;;;4.78;;
11342;SDS011;5726;42.160;24.746;2023-07-31T13:05:13;4.70;;;4.30;;
11342;SDS011;5726;42.160;24.746;2023-07-31T13:07:38;5.68;;;4.50;;
11342;SDS011;5726;42.160;24.746;2023-07-31T13:10:05;5.00;;;4.50;;
11342;SDS011;5726;42.160;24.746;2023-07-31T13:12:31;5.72;;;4.25;;
11342;SDS011;5726;42.160;24.746;2023-07-31T13:14:57;6.32;;;4.85;;
11342;SDS011;5726;42.160;24.746;2023-07-31T13:17:22;5.28;;;4.78;;
11342;SDS011;5726;42.160;24.746;2023-07-31T13:19:48;5.90;;;5.20;;
11342;SDS011;5726;42.160;24.746;2023-07-31T13:22:13;5.05;;;4.55;;
11342;SDS011;5726;42.160;24.746;2023-07-31T13:24:39;5.80;;;5.20;;
11342;SDS011;5726;42.160;24.746;2023-07-31T13:27:04;6.80;;;5.90;;
11342;SDS011;5726;42.160;24.746;2023-07-31T13:29:29;7.00;;;6.22;;
11342;SDS011;5726;42.160;24.746;2023-07-31T13:31:57;6.88;;;6.28;;
11342;SDS011;5726;42.160;24.746;2023-07-31T13:34:22;7.38;;;5.90;;
11342;SDS011;5726;42.160;24.746;2023-07-31T13:36:48;6.63;;;6.03;;
11342;SDS011;5726;42.160;24.746;2023-07-31T13:39:13;7.60;;;6.25;;
11342;SDS011;5726;42.160;24.746;2023-07-31T13:41:38;6.53;;;5.65;;
11342;SDS011;5726;42.160;24.746;2023-07-31T13:44:04;7.57;;;5.93;;
11342;SDS011;5726;42.160;24.746;2023-07-31T13:46:29;6.55;;;5.60;;
11342;SDS011;5726;42.160;24.746;2023-07-31T13:48:55;6.82;;;6.03;;
11342;SDS011;5726;42.160;24.746;2023-07-31T13:51:21;8.40;;;5.57;;
11342;SDS011;5726;42.160;24.746;2023-07-31T13:53:46;7.68;;;6.38;;
11342;SDS011;5726;42.160;24.746;2023-07-31T13:56:12;7.57;;;6.07;;
11342;SDS011;5726;42.160;24.746;2023-07-31T13:58:38;6.40;;;5.80;;
11342;SDS011;5726;42.160;24.746;2023-07-31T14:01:03;6.85;;;5.95;;
11342;SDS011;5726;42.160;24.746;2023-07-31T14:03:30;6.53;;;5.65;;
11342;SDS011;5726;42.160;24.746;2023-07-31T14:05:56;7.03;;;6.07;;
11342;SDS011;5726;42.160;24.746;2023-07-31T14:08:21;7.65;;;5.50;;
11342;SDS011;5726;42.160;24.746;2023-07-31T14:10:47;8.10;;;5.13;;
11342;SDS011;5726;42.160;24.746;2023-07-31T14:13:12;5.88;;;5.28;;
11342;SDS011;5726;42.160;24.746;2023-07-31T14:15:39;7.47;;;6.28;;
11342;SDS011;5726;42.160;24.746;2023-07-31T14:18:06;6.45;;;5.70;;
11342;SDS011;5726;42.160;24.746;2023-07-31T14:20:32;6.82;;;5.65;;
11342;SDS011;5726;42.160;24.746;2023-07-31T14:22:57;6.40;;;5.80;;
11342;SDS011;5726;42.160;24.746;2023-07-31T14:25:24;8.00;;;6.10;;
11342;SDS011;5726;42.160;24.746;2023-07-31T14:27:49;7.10;;;5.65;;
11342;SDS011;5726;42.160;24.746;2023-07-31T14:30:14;7.22;;;5.70;;
11342;SDS011;5726;42.160;24.746;2023-07-31T14:32:41;7.78;;;5.88;;
11342;SDS011;5726;42.160;24.746;2023-07-31T14:35:06;6.60;;;6.00;;
11342;SDS011;5726;42.160;24.746;2023-07-31T14:37:42;6.57;;;5.97;;
11342;SDS011;5726;42.160;24.746;2023-07-31T14:40:09;6.50;;;5.82;;
11342;SDS011;5726;42.160;24.746;2023-07-31T14:42:36;6.80;;;5.82;;
11342;SDS011;5726;42.160;24.746;2023-07-31T14:45:02;6.43;;;5.22;;
11342;SDS011;5726;42.160;24.746;2023-07-31T14:47:31;5.60;;;5.10;;
11342;SDS011;5726;42.160;24.746;2023-07-31T14:49:57;5.28;;;4.78;;
11342;SDS011;5726;42.160;24.746;2023-07-31T14:52:23;6.47;;;5.10;;
11342;SDS011;5726;42.160;24.746;2023-07-31T14:54:49;6.25;;;5.65;;
11342;SDS011;5726;42.160;24.746;2023-07-31T14:57:15;6.25;;;5.55;;
11342;SDS011;5726;42.160;24.746;2023-07-31T14:59:40;7.88;;;6.25;;
11342;SDS011;5726;42.160;24.746;2023-07-31T15:02:06;9.35;;;6.40;;
11342;SDS011;5726;42.160;24.746;2023-07-31T15:04:34;7.90;;;6.03;;